Terminal Aerodrome Forecast
Issued by NWS Albany, NY

Home | Current Version | Previous Version | Text Only | Print | Product List | Glossary On
Versions: 1 2 3 4 5 6 7 8 9 10 11 12 13 14 15 16 17 18 19 20 21 22 23 24
000
FTUS41 KALY 240818 AAA
TAFGFL
TAF AMD
KGFL 240818Z 2408/2506 21007KT P6SM BKN100
     FM241000 21006KT P6SM SCT100
     FM241400 20008KT P6SM SKC
     FM241700 22010G18KT P6SM FEW250
     FM250000 23006KT P6SM SCT250
     FM250300 VRB03KT P6SM SCT120 BKN250=

USA.gov is the U.S. government's official web portal to all federal, state and local government web resources and services.